EPLL/LCJ METAR and TAF weather

Enter ICAO airport designator
Station Type Date Time Source
EPLL METAR 2019/06/26 22:30 UTC NOAA

EPLL 262230Z 31003KT 270V340 CAVOK 27/18 Q1016


Station Type Date Time Source
EPLL Decoded METAR 2019/06/26 22:30 UTC NOAA

Station name not available
Jun 26, 2019 - 06:30 PM EDT / 2019.06.26 2230 UTC
Wind: from the NW (310 degrees) at 3 MPH (3 KT) (direction variable):0
Visibility: greater than 7 mile(s):0
Temperature: 80 F (27 C)
Dew Point: 64 F (18 C)
Relative Humidity: 57%
Pressure (altimeter): 30.00 in. Hg (1016 hPa)
ob: EPLL 262230Z 31003KT 270V340 CAVOK 27/18 Q1016
cycle: 22

Station Type Date Time Source
EPLL TAF 2019/06/26 18:00 UTC NOAA

TAF EPLL 261730Z 2618/2718 25010KT CAVOK PROB40
TEMPO 2618/2624 SCT050CB
BECMG 2623/2701 30015KT
TEMPO 2706/2712 32020G34KT

Example: see airport list